Niagara Falls International Airport
KIAG : rendu visible

Aérodrome :











RETROUVEZ-NOUS SUR...

 
LOGIN :

S'inscrire | Disclaimer

   EN    FR    IT 

 









Légende :    VFR   VFR Marginal   IFR   IFR Intensif   IFR Très Intensif
Visi : 
Plafond : 
>= 8 km
>= 3000ft
5 à 8 km
1000 à 3000 ft
1500m à 5 km
500 à 1000 ft
800 à 1500m
200 à 500 ft
< 800m
< 200 ft
Symboles :   Orages  Brouillard  Fortes neiges  Fortes précipitations  Vent > 20 kt






- Altitude de l'aérodrome : 589 ft
- Code IATA : IAG


KIAG - Niagara Falls International

DERNIER METAR :
  • 211553Z 20011KT 10SM FEW100 05/01 A3011 RMK AO2 SLP209 T00500006

METARs EXPIRÉS :
  • 211453Z 19011KT 10SM CLR 05/01 A3013 RMK AO2 SLP215 T00500006 58016
  • 211353Z COR 19007KT 10SM CLR 04/01 A3016 RMK AO2 SLP225 T00390011
  • 211303Z 15005KT 6SM BR BKN031 03/02 A3017 RMK AO2 T00280017

TAF KIAG
Valide du 21 à 15h jusqu'au 22 à 12h UTC


211503Z 2115/2212 19011KT P6SM BKN250
FM211900 18012G22KT P6SM OVC080
FM220000 19014KT P6SM VCSH OVC040 WS020/23045KT
FM220300 22022G30KT 6SM -SHRA OVC025
FM220700 25022G40KT 6SM -SHRA BKN025



MET'MAP, la Météo Aéronautique d'un coup d'oeil ! - Copyright ORBIFLY Décembre 2007 - Disclaimer

ORBIFLY MET'MAP TEAM :

Programmation & Développement : Alexandra Zaïnal
Conception & Développement : Baudouin d'Aumeries
Co-Programmation & Développement : Marc-Olivier Méhu
Soutien technique & logistique : Manuel Goepfert

Contact : metmap@orbifly.com




SOURCES & CREDITS :

   NOAA       Earth
Advisory